Airfield :
LOGIN :

Register | Disclaimer

   EN    FR    IT 

 










Legend :    VFR   Marginal VFR   IFR   Intensive IFR   Very Intensive IFR
Visi :
Ceiling :
>= 8 km
>= 3000ft
5 to 8 km
1000 to 3000 ft
1500m to 5 km
500 to 1000 ft
800 to 1500m
200 to 500 ft
< 800m
< 200 ft
Symbols :   Thunderstorms  Fog  Heavy snow  Heavy precipitations  Wind > 20 kt
SIGMETs :     Misc.  Thunderstorms  Icing  Turbulence  Mountain Waves  Volcanic Ashes






- Airport Elevation : 17 ft
- IATA code : MPL


LFMT - Montpellier Méditerranée

CURRENT METAR :
  • 230800Z AUTO 36010KT CAVOK 27/14 Q1018 BECMG 30010KT

EXPIRED METARs :
  • 230730Z AUTO 35011KT CAVOK 26/13 Q1019 NOSIG
  • 230700Z AUTO 32004KT 250V350 CAVOK 25/14 Q1019 NOSIG
  • 230630Z AUTO 31005KT 280V360 CAVOK 24/14 Q1019 NOSIG
  • 230600Z AUTO 30004KT 270V330 CAVOK 23/14 Q1019 NOSIG
  • 230530Z AUTO 30006KT CAVOK 22/15 Q1018 NOSIG
  • 230500Z AUTO 30004KT 260V350 CAVOK 21/15 Q1018 NOSIG
  • 230430Z AUTO 31004KT CAVOK 20/14 Q1018 NOSIG
  • 230400Z AUTO VRB03KT CAVOK 21/14 Q1018 NOSIG
  • 230330Z AUTO 33009KT CAVOK 21/14 Q1018 NOSIG

TAF TAF LFMT
Valid from the 23 at 03:00 until the 24 at 03:00 UTC


230200Z 2303/2403 30010KT CAVOK
BECMG 2313/2315 20010KT
BECMG 2319/2321 36010KT
ATIS : +33 4 67 13 11 70



MET'MAP, your aeronautical weather chart ! - Copyright ORBIFLY December 2007 - Disclaimer

ORBIFLY MET'MAP TEAM :

Programming & Development : Alexandra Zaïnal
Original concept : Baudouin d'Aumeries
Technical & hardware support : Manuel Goepfert
Assistance : Marc-Olivier Méhu




SOURCES & CREDITS :

   NOAA